Time;durP1;ratioP1;P1;durP2;ratioP2;P2;SDS_P1;SDS_P2;PMS_P1;PMS_P2;Temp;Humidity;BMP_temperature;BMP_pressure;BME280_temperature;BME280_humidity;BME280_pressure;Samples;Min_cycle;Max_cycle;Signal;HPM_P1;HPM_P2
2022/05/29 00:01:41;;;;;;;8.85;3.05;;;;;;;19.46;100.00;97780.19;5049844;28;20220;-60
2022/05/29 00:04:06;;;;;;;7.47;3.00;;;;;;;19.37;100.00;97770.72;5040856;28;20276;-60
2022/05/29 00:06:40;;;;;;;7.20;3.25;;;;;;;19.41;100.00;97753.66;5039760;28;20220;-60
2022/05/29 00:09:09;;;;;;;7.65;3.10;;;;;;;19.46;100.00;97759.19;5040644;28;20187;-60
2022/05/29 00:11:35;;;;;;;9.68;3.33;;;;;;;19.39;100.00;97760.88;5045701;28;20185;-61
2022/05/29 00:14:00;;;;;;;9.30;3.15;;;;;;;19.45;100.00;97757.53;5036062;28;20177;-60
2022/05/29 00:16:29;;;;;;;6.22;3.25;;;;;;;19.50;100.00;97753.41;5039572;28;20662;-60
2022/05/29 00:18:55;;;;;;;5.03;2.92;;;;;;;19.37;100.00;97745.31;5029979;28;20182;-60
2022/05/29 00:21:21;;;;;;;5.78;3.00;;;;;;;19.28;100.00;97735.03;5030752;28;20217;-60
2022/05/29 00:23:49;;;;;;;9.88;3.30;;;;;;;19.16;100.00;97718.06;5043314;28;20658;-60
2022/05/29 00:26:17;;;;;;;12.05;3.72;;;;;;;19.10;100.00;97703.00;5039053;28;20212;-60
2022/05/29 00:28:43;;;;;;;7.63;3.60;;;;;;;18.98;100.00;97696.53;5039135;28;20208;-60
2022/05/29 00:31:09;;;;;;;8.35;3.08;;;;;;;19.04;100.00;97698.47;5041017;28;20189;-60
2022/05/29 00:33:35;;;;;;;7.95;3.10;;;;;;;19.00;100.00;97698.00;5039886;28;20184;-60
2022/05/29 00:36:00;;;;;;;7.40;3.67;;;;;;;19.00;100.00;97695.38;5038750;28;20180;-60
2022/05/29 00:38:27;;;;;;;9.00;3.15;;;;;;;19.01;100.00;97694.38;5048305;28;20177;-60
2022/05/29 00:41:17;;;;;;;7.72;2.20;;;;;;;19.06;100.00;97699.13;5044552;28;20654;-61
2022/05/29 00:43:46;;;;;;;8.30;3.13;;;;;;;19.13;100.00;97706.09;5042117;28;20189;-60
2022/05/29 00:46:12;;;;;;;8.43;2.90;;;;;;;19.20;100.00;97721.97;5034673;28;20201;-60
2022/05/29 00:48:38;;;;;;;8.48;2.88;;;;;;;19.32;100.00;97733.72;5019277;28;20251;-61
2022/05/29 00:51:09;;;;;;;8.40;2.38;;;;;;;19.39;100.00;97737.25;5019815;28;20662;-60
2022/05/29 00:53:37;;;;;;;9.70;2.83;;;;;;;19.39;100.00;97721.50;5025255;28;20178;-60
2022/05/29 00:56:08;;;;;;;11.77;2.88;;;;;;;19.33;100.00;97680.25;5044714;28;20614;-60
2022/05/29 00:58:33;;;;;;;8.85;2.83;;;;;;;19.28;100.00;97653.72;5038488;28;20300;-61
2022/05/29 01:01:01;;;;;;;6.20;2.58;;;;;;;19.27;100.00;97649.47;5043098;28;20193;-61
2022/05/29 01:03:26;;;;;;;8.57;2.55;;;;;;;19.42;100.00;97672.13;5039490;28;20343;-61
2022/05/29 01:05:52;;;;;;;9.80;3.10;;;;;;;19.44;100.00;97691.16;5040296;28;20684;-60
2022/05/29 01:08:21;;;;;;;14.43;3.00;;;;;;;19.42;100.00;97697.56;5031332;28;20847;-60
2022/05/29 01:10:49;;;;;;;6.63;3.20;;;;;;;19.44;100.00;97695.56;5018576;28;20269;-61
2022/05/29 01:13:26;;;;;;;10.73;3.00;;;;;;;19.37;100.00;97698.09;5020750;28;20185;-60
2022/05/29 01:16:36;;;;;;;9.05;3.80;;;;;;;19.37;100.00;97686.78;5043543;28;20169;-60
2022/05/29 01:19:20;;;;;;;7.32;2.67;;;;;;;19.23;100.00;97679.69;5032962;28;20172;-61
2022/05/29 01:22:03;;;;;;;6.32;2.60;;;;;;;19.15;100.00;97677.91;5035766;28;20565;-60
2022/05/29 01:24:53;;;;;;;6.70;2.53;;;;;;;19.01;100.00;97683.91;5045479;28;20256;-60
2022/05/29 01:27:28;;;;;;;7.15;2.35;;;;;;;18.91;100.00;97685.97;5042712;28;20197;-61
2022/05/29 01:30:05;;;;;;;10.52;2.65;;;;;;;18.85;100.00;97680.59;5035344;28;20187;-59
2022/05/29 01:32:56;;;;;;;14.32;3.30;;;;;;;18.71;100.00;97686.59;5038833;28;20191;-59
2022/05/29 01:35:44;;;;;;;9.88;2.83;;;;;;;18.78;100.00;97690.13;5039382;28;20190;-59
2022/05/29 01:38:36;;;;;;;9.32;2.45;;;;;;;18.83;100.00;97714.03;5045417;28;20209;-59
2022/05/29 01:41:10;;;;;;;4.78;2.75;;;;;;;18.79;100.00;97715.34;5042018;28;20198;-59
2022/05/29 01:43:55;;;;;;;10.63;3.55;;;;;;;18.56;100.00;97732.84;5044778;28;20181;-59
2022/05/29 01:46:30;;;;;;;14.75;3.70;;;;;;;18.45;100.00;97720.94;5033707;28;20193;-59
2022/05/29 01:49:07;;;;;;;9.45;2.90;;;;;;;18.43;100.00;97711.63;5033190;28;20212;-59
2022/05/29 01:51:41;;;;;;;17.30;3.08;;;;;;;18.44;100.00;97719.31;5016302;28;20185;-60
2022/05/29 01:54:14;;;;;;;5.18;2.95;;;;;;;18.54;100.00;97725.13;5018860;28;20181;-59
2022/05/29 01:56:44;;;;;;;9.55;2.40;;;;;;;18.69;100.00;97727.84;5030683;28;20280;-58
2022/05/29 01:59:15;;;;;;;6.45;2.65;;;;;;;18.81;100.00;97732.53;5036861;28;20570;-59
2022/05/29 02:01:52;;;;;;;14.55;2.72;;;;;;;18.86;100.00;97732.84;5036803;28;20194;-59
2022/05/29 02:04:22;;;;;;;10.00;3.08;;;;;;;18.86;100.00;97734.63;5033699;28;20194;-60
2022/05/29 02:09:48;;;;;;;6.43;2.83;;;;;;;18.90;100.00;97741.19;5039938;28;20180;-58
2022/05/29 02:12:19;;;;;;;6.55;3.25;;;;;;;18.82;100.00;97718.44;5037742;28;20254;-59
2022/05/29 02:14:59;;;;;;;7.63;3.30;;;;;;;18.78;100.00;97716.34;5037478;28;21341;-58
2022/05/29 02:17:35;;;;;;;5.88;3.30;;;;;;;18.90;100.00;97721.03;5041338;28;20203;-58
2022/05/29 02:20:07;;;;;;;10.55;2.83;;;;;;;19.00;100.00;97715.56;5030862;28;20189;-59
2022/05/29 02:22:35;;;;;;;9.40;3.13;;;;;;;19.08;100.00;97723.38;5035154;28;20196;-59
2022/05/29 02:25:07;;;;;;;8.13;2.72;;;;;;;19.12;100.00;97735.16;5038947;28;20259;-59
2022/05/29 02:27:54;;;;;;;5.80;2.92;;;;;;;18.97;100.00;97757.84;5031485;28;20548;-59
2022/05/29 02:30:23;;;;;;;9.23;3.03;;;;;;;18.95;100.00;97772.94;5037679;28;20220;-59
2022/05/29 02:32:51;;;;;;;5.30;2.80;;;;;;;19.01;100.00;97808.97;5022721;28;20194;-59
2022/05/29 02:35:41;;;;;;;7.13;2.20;;;;;;;19.05;100.00;97826.00;5017074;28;20207;-59
2022/05/29 02:38:21;;;;;;;4.82;2.40;;;;;;;18.98;100.00;97809.28;5022830;28;20188;-59
2022/05/29 02:41:06;;;;;;;6.88;2.97;;;;;;;18.98;100.00;97794.38;5036911;28;20185;-59
2022/05/29 02:43:46;;;;;;;16.23;3.95;;;;;;;18.86;100.00;97766.09;5032980;28;20181;-58
2022/05/29 02:46:32;;;;;;;7.93;3.20;;;;;;;18.65;100.00;97774.56;5035628;28;20712;-59
2022/05/29 02:49:12;;;;;;;7.25;3.60;;;;;;;18.58;100.00;97799.81;5038591;28;20189;-59
2022/05/29 02:51:55;;;;;;;11.43;3.65;;;;;;;18.45;100.00;97830.97;5030120;28;20189;-60
2022/05/29 02:54:26;;;;;;;7.82;3.63;;;;;;;18.46;100.00;97827.38;5022706;28;20296;-59
2022/05/29 02:56:52;;;;;;;6.65;3.47;;;;;;;18.57;100.00;97818.31;5017204;28;20198;-58
2022/05/29 02:59:22;;;;;;;11.82;3.30;;;;;;;18.66;100.00;97793.72;5025153;28;20173;-60
2022/05/29 03:02:15;;;;;;;5.38;3.58;;;;;;;18.69;100.00;97790.75;5040393;28;20193;-59
2022/05/29 03:04:49;;;;;;;11.40;4.63;;;;;;;18.51;100.00;97777.91;5038279;28;20231;-59
2022/05/29 03:07:44;;;;;;;6.93;3.42;;;;;;;18.32;100.00;97791.41;5038138;28;20696;-59
2022/05/29 03:10:23;;;;;;;12.27;3.60;;;;;;;18.37;100.00;97775.97;5035140;28;20209;-59
2022/05/29 03:13:04;;;;;;;8.48;3.70;;;;;;;18.32;100.00;97773.06;5036031;28;20185;-60
2022/05/29 03:15:49;;;;;;;11.77;3.38;;;;;;;18.23;100.00;97758.31;5023431;28;20211;-59
2022/05/29 03:18:34;;;;;;;7.93;3.88;;;;;;;18.19;100.00;97757.00;5017360;28;20882;-60
2022/05/29 03:21:24;;;;;;;9.32;4.47;;;;;;;17.95;100.00;97740.56;5023805;28;20185;-59
2022/05/29 03:24:01;;;;;;;9.32;3.70;;;;;;;17.79;100.00;97751.84;5039072;28;20202;-59
2022/05/29 03:26:45;;;;;;;8.75;3.40;;;;;;;17.60;100.00;97765.28;5037054;28;20197;-59
2022/05/29 03:29:24;;;;;;;8.35;3.83;;;;;;;17.65;100.00;97765.59;5036951;28;20276;-59
2022/05/29 03:31:50;;;;;;;9.55;4.55;;;;;;;17.64;100.00;97761.38;5040219;28;20267;-59
2022/05/29 03:34:16;;;;;;;9.55;5.00;;;;;;;17.55;100.00;97756.31;5032490;28;20289;-60
2022/05/29 03:36:46;;;;;;;6.18;4.10;;;;;;;17.60;100.00;97743.56;5037250;28;20264;-59
2022/05/29 03:39:11;;;;;;;10.77;4.00;;;;;;;17.63;100.00;97746.66;5036491;28;20211;-59
2022/05/29 03:41:44;;;;;;;13.57;4.18;;;;;;;17.62;100.00;97718.03;5039940;28;20188;-59
2022/05/29 03:44:12;;;;;;;10.27;5.05;;;;;;;17.60;100.00;97707.72;5038970;28;20258;-59
2022/05/29 03:46:39;;;;;;;12.52;4.68;;;;;;;17.62;100.00;97705.78;5039798;28;20201;-59
2022/05/29 03:49:06;;;;;;;11.98;4.60;;;;;;;17.65;100.00;97697.59;5044348;28;20322;-59
2022/05/29 03:51:32;;;;;;;9.05;4.20;;;;;;;17.70;100.00;97702.31;5033074;28;20193;-60
2022/05/29 03:53:57;;;;;;;12.35;3.67;;;;;;;17.65;100.00;97708.03;5038122;28;20184;-59
2022/05/29 03:56:23;;;;;;;8.00;3.67;;;;;;;17.62;100.00;97695.31;5041551;28;20241;-59
2022/05/29 03:58:48;;;;;;;9.25;3.63;;;;;;;17.58;100.00;97701.03;5035429;28;20197;-59
2022/05/29 04:01:13;;;;;;;7.55;4.13;;;;;;;17.68;100.00;97693.81;5037306;28;20276;-59
2022/05/29 04:03:39;;;;;;;9.02;4.18;;;;;;;17.70;100.00;97694.47;5039021;28;20189;-59
2022/05/29 04:06:04;;;;;;;10.38;4.13;;;;;;;17.67;100.00;97693.00;5032355;28;20205;-59
2022/05/29 04:13:59;;;;;;;9.88;4.22;;;;;;;17.93;100.00;97672.66;5037551;28;20184;-59
2022/05/29 04:16:24;;;;;;;10.05;3.70;;;;;;;17.95;100.00;97675.91;5043729;28;20185;-59
2022/05/29 04:18:50;;;;;;;10.80;3.92;;;;;;;17.98;100.00;97677.38;5036291;28;20823;-59
2022/05/29 04:21:15;;;;;;;5.25;3.67;;;;;;;18.03;100.00;97682.94;5038264;28;20274;-59
2022/05/29 04:23:41;;;;;;;8.98;3.50;;;;;;;17.92;100.00;97678.06;5045117;28;20192;-59
2022/05/29 04:26:07;;;;;;;5.88;3.33;;;;;;;18.02;100.00;97682.09;5034826;28;20243;-59
2022/05/29 04:28:33;;;;;;;6.28;3.35;;;;;;;18.04;100.00;97671.47;5044094;28;21053;-60
2022/05/29 04:30:58;;;;;;;7.05;3.67;;;;;;;18.15;100.00;97665.88;5040374;28;20196;-59
2022/05/29 04:33:25;;;;;;;8.75;4.00;;;;;;;18.21;100.00;97670.44;5033469;28;20193;-60
2022/05/29 04:35:52;;;;;;;6.20;3.58;;;;;;;18.38;100.00;97670.22;5035152;28;20194;-59
2022/05/29 04:38:19;;;;;;;9.23;3.60;;;;;;;18.50;100.00;97665.41;5038240;28;20211;-59
2022/05/29 04:40:45;;;;;;;8.50;3.75;;;;;;;18.55;100.00;97657.84;5019050;28;20189;-59
2022/05/29 04:43:12;;;;;;;7.88;3.55;;;;;;;18.70;100.00;97663.97;5020744;28;20236;-59
2022/05/29 04:45:40;;;;;;;9.32;3.45;;;;;;;18.68;100.00;97661.53;5032155;28;20217;-59
2022/05/29 04:48:06;;;;;;;7.57;3.03;;;;;;;18.75;100.00;97653.78;5035680;28;20654;-59
2022/05/29 04:50:32;;;;;;;7.88;4.05;;;;;;;18.96;100.00;97672.31;5034977;28;20272;-59
2022/05/29 04:52:57;;;;;;;8.25;3.75;;;;;;;19.04;100.00;97674.88;5034877;28;20276;-59
2022/05/29 04:55:23;;;;;;;9.13;3.88;;;;;;;19.12;100.00;97670.38;5044488;28;20169;-59
2022/05/29 04:57:48;;;;;;;7.18;3.45;;;;;;;19.17;100.00;97669.88;5040186;28;20217;-59
2022/05/29 05:00:15;;;;;;;7.55;4.18;;;;;;;19.21;100.00;97677.25;5038897;28;20243;-59
2022/05/29 05:02:41;;;;;;;8.68;3.80;;;;;;;19.23;100.00;97679.69;5038817;28;20177;-59
2022/05/29 05:05:07;;;;;;;9.75;4.00;;;;;;;19.14;100.00;97655.31;5041840;28;20270;-59
2022/05/29 05:07:32;;;;;;;6.22;3.65;;;;;;;19.37;100.00;97671.03;5036570;28;20181;-59
2022/05/29 05:09:58;;;;;;;7.53;3.83;;;;;;;19.35;100.00;97668.56;5042066;28;20191;-60
2022/05/29 05:12:24;;;;;;;8.63;3.20;;;;;;;19.40;100.00;97665.44;5038370;28;20220;-59
2022/05/29 05:14:49;;;;;;;5.50;3.30;;;;;;;19.47;100.00;97676.84;5040077;28;20216;-59
2022/05/29 05:17:16;;;;;;;15.18;3.90;;;;;;;19.45;100.00;97673.56;5043055;28;20243;-59
2022/05/29 05:19:41;;;;;;;7.57;3.92;;;;;;;19.54;100.00;97678.59;5040125;28;21011;-59
2022/05/29 05:22:09;;;;;;;8.90;3.85;;;;;;;19.64;100.00;97678.34;5018345;28;20760;-59
2022/05/29 05:24:37;;;;;;;8.32;4.60;;;;;;;19.80;100.00;97683.41;5019162;28;20247;-59
2022/05/29 05:27:04;;;;;;;8.60;3.53;;;;;;;19.93;100.00;97692.28;5027805;28;20673;-59
2022/05/29 05:29:30;;;;;;;7.68;3.50;;;;;;;19.76;100.00;97713.66;5044012;28;20190;-59
2022/05/29 05:31:55;;;;;;;10.27;4.25;;;;;;;19.74;100.00;97715.63;5040175;28;20579;-59
2022/05/29 05:34:21;;;;;;;10.85;4.03;;;;;;;19.72;100.00;97717.63;5046083;28;20185;-59
2022/05/29 05:36:47;;;;;;;10.90;4.30;;;;;;;19.76;100.00;97709.19;5046152;28;20184;-59
2022/05/29 05:39:12;;;;;;;8.02;3.85;;;;;;;19.74;100.00;97708.56;5039946;28;20197;-59
2022/05/29 05:41:38;;;;;;;7.10;4.40;;;;;;;19.84;100.00;97710.94;5026193;28;20185;-58
2022/05/29 05:44:03;;;;;;;8.13;3.92;;;;;;;19.88;100.00;97712.22;5017612;28;20181;-59
2022/05/29 05:46:29;;;;;;;6.00;3.75;;;;;;;20.01;100.00;97717.66;5019742;28;20969;-59
2022/05/29 05:48:55;;;;;;;10.38;3.97;;;;;;;20.26;100.00;97716.41;5030726;28;20565;-59
2022/05/29 05:51:21;;;;;;;9.10;4.45;;;;;;;20.40;100.00;97700.63;5042697;28;20184;-59
2022/05/29 05:53:46;;;;;;;8.80;4.45;;;;;;;20.58;100.00;97700.25;5041553;28;21013;-59
2022/05/29 05:56:14;;;;;;;6.93;3.67;;;;;;;20.70;100.00;97702.19;5033883;28;20256;-59
2022/05/29 05:58:42;;;;;;;12.38;4.20;;;;;;;20.83;100.00;97691.03;5039663;28;20224;-59
2022/05/29 06:01:17;;;;;;;12.73;4.28;;;;;;;20.93;100.00;97691.56;5034722;28;20185;-60
2022/05/29 06:03:43;;;;;;;7.00;3.50;;;;;;;21.10;100.00;97700.84;5038977;28;20772;-59
2022/05/29 06:06:08;;;;;;;6.45;3.92;;;;;;;21.22;100.00;97697.50;5038043;28;20787;-60
2022/05/29 06:08:34;;;;;;;9.15;4.20;;;;;;;21.35;100.00;97699.47;5041811;28;20189;-60
2022/05/29 06:11:00;;;;;;;6.88;4.30;;;;;;;21.48;100.00;97704.84;5038247;28;20189;-60
2022/05/29 06:13:26;;;;;;;6.70;3.83;;;;;;;21.62;100.00;97709.22;5032114;28;20189;-60
2022/05/29 06:15:51;;;;;;;9.18;4.10;;;;;;;21.64;100.00;97709.84;5041544;28;20173;-59
2022/05/29 06:18:18;;;;;;;10.77;4.38;;;;;;;21.62;100.00;97701.31;5038367;28;20689;-59
2022/05/29 06:20:45;;;;;;;9.25;4.03;;;;;;;21.62;100.00;97710.00;5041004;28;20296;-60
2022/05/29 06:23:11;;;;;;;9.45;4.35;;;;;;;21.70;100.00;97701.19;5038762;28;20277;-59
2022/05/29 06:25:41;;;;;;;6.70;3.47;;;;;;;21.66;100.00;97698.09;5036191;28;20216;-59
2022/05/29 06:28:08;;;;;;;7.88;4.30;;;;;;;21.66;100.00;97694.66;5037794;28;20718;-60
2022/05/29 06:30:34;;;;;;;7.65;3.75;;;;;;;21.69;100.00;97689.03;5036858;28;20205;-60
2022/05/29 06:33:01;;;;;;;9.57;4.30;;;;;;;21.62;100.00;97680.25;5031731;28;20217;-59
2022/05/29 06:35:27;;;;;;;9.00;4.38;;;;;;;21.66;100.00;97681.47;5039728;28;20185;-59
2022/05/29 06:37:52;;;;;;;8.88;3.78;;;;;;;21.69;100.00;97686.41;5041776;28;20189;-59
2022/05/29 06:40:18;;;;;;;8.23;3.72;;;;;;;21.69;100.00;97689.84;5035220;28;20559;-61
2022/05/29 06:42:43;;;;;;;8.98;3.72;;;;;;;21.73;100.00;97698.19;5039477;28;20997;-60
2022/05/29 06:45:10;;;;;;;7.32;3.97;;;;;;;21.72;100.00;97697.38;5036862;28;20209;-60
2022/05/29 06:47:37;;;;;;;6.70;3.50;;;;;;;21.72;100.00;97697.38;5036803;28;20180;-61
2022/05/29 06:50:03;;;;;;;11.07;3.88;;;;;;;21.82;100.00;97684.69;5038390;28;20185;-60
2022/05/29 06:52:31;;;;;;;11.60;4.20;;;;;;;21.87;100.00;97689.38;5033163;28;20200;-60
2022/05/29 06:54:56;;;;;;;7.32;3.63;;;;;;;21.84;100.00;97684.47;5033104;28;20190;-60
2022/05/29 06:57:55;;;;;;;7.63;3.72;;;;;;;21.81;100.00;97690.97;5037471;28;20217;-59
2022/05/29 07:08:38;;;;;;;9.48;4.43;;;;;;;21.44;100.00;97683.34;5036360;28;20219;-60
2022/05/29 07:11:34;;;;;;;7.03;3.65;;;;;;;21.55;100.00;97680.19;5038403;28;20196;-59
2022/05/29 07:14:02;;;;;;;11.48;4.60;;;;;;;21.62;100.00;97675.78;5042316;28;20208;-60
2022/05/29 07:16:27;;;;;;;9.85;3.78;;;;;;;21.68;100.00;97669.78;5037452;28;20180;-59
2022/05/29 07:18:54;;;;;;;8.63;4.03;;;;;;;21.71;100.00;97681.75;5039000;28;20578;-60
2022/05/29 07:21:20;;;;;;;6.85;3.90;;;;;;;21.80;100.00;97685.88;5036809;28;20217;-60
2022/05/29 07:23:46;;;;;;;7.72;3.75;;;;;;;21.77;100.00;97678.34;5038438;28;20190;-59
2022/05/29 07:26:11;;;;;;;8.30;4.28;;;;;;;21.79;100.00;97676.34;5035987;28;20232;-60
2022/05/29 07:28:37;;;;;;;8.45;3.78;;;;;;;21.83;100.00;97664.41;5015660;28;20235;-60
2022/05/29 07:31:03;;;;;;;6.72;3.40;;;;;;;21.82;100.00;97660.97;5017519;28;20189;-59
2022/05/29 07:33:30;;;;;;;8.40;4.65;;;;;;;21.90;100.00;97667.88;5022876;28;20243;-59
2022/05/29 07:35:56;;;;;;;8.27;3.65;;;;;;;21.96;100.00;97660.03;5032797;28;20184;-59
2022/05/29 07:38:22;;;;;;;8.70;3.42;;;;;;;22.01;100.00;97643.63;5041790;28;20180;-60
2022/05/29 07:40:48;;;;;;;6.88;3.20;;;;;;;22.06;100.00;97651.78;5034257;28;20185;-59
2022/05/29 07:43:19;;;;;;;9.05;3.40;;;;;;;22.08;100.00;97655.84;5033053;28;20927;-60
2022/05/29 07:45:56;;;;;;;10.30;3.28;;;;;;;22.25;100.00;97661.63;5032545;28;20259;-59
2022/05/29 07:48:25;;;;;;;6.60;3.35;;;;;;;22.34;100.00;97665.69;5028318;28;20885;-59
2022/05/29 07:50:51;;;;;;;15.15;4.65;;;;;;;22.36;100.00;97661.88;5015990;28;20197;-60
2022/05/29 07:53:16;;;;;;;9.85;4.53;;;;;;;22.45;100.00;97657.25;5018200;28;20700;-59
2022/05/29 07:55:43;;;;;;;9.82;4.68;;;;;;;22.52;100.00;97669.47;5027673;28;20251;-60
2022/05/29 07:58:11;;;;;;;8.77;4.10;;;;;;;22.59;100.00;97674.75;5031433;28;20224;-61
2022/05/29 08:00:37;;;;;;;10.30;3.70;;;;;;;22.69;100.00;97675.19;5038703;28;20188;-61
2022/05/29 08:03:03;;;;;;;8.45;3.97;;;;;;;22.84;100.00;97674.00;5041847;28;20189;-61
2022/05/29 08:05:31;;;;;;;11.23;4.03;;;;;;;22.97;100.00;97674.03;5047458;28;20212;-60
2022/05/29 08:07:57;;;;;;;8.25;4.05;;;;;;;23.13;100.00;97672.88;5037321;28;20189;-61
2022/05/29 08:10:23;;;;;;;10.20;3.92;;;;;;;23.27;100.00;97669.25;5023367;28;20254;-61
2022/05/29 08:12:49;;;;;;;9.88;3.70;;;;;;;23.39;100.00;97662.34;5020407;28;20196;-61
2022/05/29 08:15:15;;;;;;;8.55;3.78;;;;;;;23.56;100.00;97668.84;5026601;28;20186;-61
2022/05/29 08:17:41;;;;;;;7.78;3.90;;;;;;;23.71;100.00;97661.53;5043941;28;20186;-60
2022/05/29 08:20:08;;;;;;;14.00;4.18;;;;;;;23.78;100.00;97673.69;5040522;28;20204;-61
2022/05/29 08:22:34;;;;;;;8.00;3.95;;;;;;;23.84;100.00;97663.13;5047024;28;20185;-60
2022/05/29 08:30:43;;;;;;;9.23;3.83;;;;;;;23.78;100.00;97647.25;5039605;28;20258;-60
2022/05/29 08:33:11;;;;;;;13.65;4.75;;;;;;;23.89;100.00;97641.38;5039447;28;20639;-61
2022/05/29 08:35:39;;;;;;;10.38;4.38;;;;;;;24.03;100.00;97641.13;5042003;28;20598;-60
2022/05/29 08:38:05;;;;;;;10.05;3.95;;;;;;;24.09;100.00;97635.03;5041091;28;20239;-60
2022/05/29 08:40:32;;;;;;;10.23;4.53;;;;;;;24.01;100.00;97621.22;5038921;28;20224;-60
2022/05/29 08:42:58;;;;;;;5.82;3.55;;;;;;;24.03;100.00;97613.91;5037300;28;20271;-60
2022/05/29 08:45:25;;;;;;;8.95;4.18;;;;;;;24.10;100.00;97614.69;5039711;28;20209;-60
2022/05/29 08:47:51;;;;;;;9.80;3.70;;;;;;;24.13;100.00;97620.38;5045573;28;20661;-60
2022/05/29 08:50:51;;;;;;;9.52;3.33;;;;;;;24.29;100.00;97627.84;5040974;28;20185;-60
2022/05/29 08:53:38;;;;;;;8.38;4.50;;;;;;;24.38;100.00;97618.63;5018438;28;20197;-60
2022/05/29 08:56:17;;;;;;;10.27;3.28;;;;;;;24.60;100.00;97627.94;5020501;28;20185;-60
2022/05/29 08:59:20;;;;;;;9.05;3.85;;;;;;;24.75;100.00;97619.69;5027560;28;20205;-60
2022/05/29 09:02:07;;;;;;;11.10;3.13;;;;;;;24.78;100.00;97620.09;5031550;28;21006;-60
2022/05/29 09:04:52;;;;;;;8.15;3.15;;;;;;;24.89;98.06;97618.59;5035204;28;20184;-60
2022/05/29 09:07:19;;;;;;;8.18;3.28;;;;;;;24.94;100.00;97608.16;5039956;28;20690;-60
2022/05/29 09:09:56;;;;;;;8.57;3.30;;;;;;;24.91;100.00;97611.25;5035767;28;20565;-60
2022/05/29 09:12:28;;;;;;;9.20;3.25;;;;;;;25.07;99.92;97608.09;5033238;28;20185;-60
2022/05/29 09:15:04;;;;;;;8.48;3.08;;;;;;;25.16;100.00;97597.00;5019228;28;20189;-60
2022/05/29 09:17:35;;;;;;;8.60;3.47;;;;;;;25.23;99.62;97608.34;5020557;28;20186;-60
2022/05/29 09:20:03;;;;;;;8.90;3.53;;;;;;;25.22;100.00;97601.44;5031680;28;20177;-61
2022/05/29 09:22:38;;;;;;;9.15;3.58;;;;;;;25.24;98.30;97596.75;5044967;28;20177;-60
2022/05/29 09:25:25;;;;;;;9.02;3.70;;;;;;;25.29;100.00;97591.63;5042211;28;20680;-60
2022/05/29 09:27:50;;;;;;;7.60;3.53;;;;;;;25.33;100.00;97587.53;5040313;28;20181;-60
2022/05/29 09:30:17;;;;;;;6.05;3.65;;;;;;;25.43;99.78;97587.03;5046687;28;20177;-61
2022/05/29 09:32:53;;;;;;;13.93;3.80;;;;;;;25.46;100.00;97586.59;5041430;28;20189;-60
2022/05/29 09:35:22;;;;;;;9.13;4.10;;;;;;;25.54;99.76;97589.75;5036903;28;20204;-61
2022/05/29 09:37:50;;;;;;;7.30;3.88;;;;;;;25.60;100.00;97588.88;5039903;28;20189;-60
2022/05/29 09:40:27;;;;;;;9.00;3.70;;;;;;;25.71;99.75;97580.22;5043298;28;20192;-60
2022/05/29 09:42:54;;;;;;;12.77;4.72;;;;;;;25.75;97.49;97580.59;5035658;28;20658;-61
2022/05/29 09:45:20;;;;;;;15.48;4.97;;;;;;;25.84;97.58;97573.97;5038354;28;20259;-60
2022/05/29 09:50:45;;;;;;;10.35;4.65;;;;;;;26.03;95.66;97568.47;5041398;28;20282;-60
2022/05/29 09:53:34;;;;;;;10.73;4.40;;;;;;;25.97;96.66;97558.75;5033167;28;20237;-61
2022/05/29 09:56:08;;;;;;;6.53;4.22;;;;;;;26.03;98.00;97555.22;5036936;28;20181;-61
2022/05/29 09:58:52;;;;;;;8.25;3.58;;;;;;;26.13;97.01;97547.53;5038597;28;20963;-61
2022/05/29 10:01:32;;;;;;;10.13;4.72;;;;;;;26.24;95.99;97535.38;5038862;28;20185;-60
2022/05/29 10:04:01;;;;;;;13.90;4.38;;;;;;;26.37;95.67;97533.31;5036177;28;20193;-60
2022/05/29 10:06:44;;;;;;;11.13;4.20;;;;;;;26.51;86.84;97533.94;5045714;28;20219;-61
2022/05/29 10:09:14;;;;;;;11.65;4.90;;;;;;;26.51;86.90;97524.16;5037808;28;20287;-61
2022/05/29 10:11:41;;;;;;;9.63;4.40;;;;;;;26.54;85.66;97517.63;5036254;28;20235;-61
2022/05/29 10:14:24;;;;;;;11.60;4.20;;;;;;;26.60;87.46;97506.88;5032738;28;20189;-60
2022/05/29 10:16:51;;;;;;;10.25;3.92;;;;;;;26.77;86.63;97509.72;5017389;28;20320;-61
2022/05/29 10:19:39;;;;;;;11.20;4.10;;;;;;;26.92;84.79;97508.22;5017773;28;20189;-61
2022/05/29 10:22:32;;;;;;;10.02;5.57;;;;;;;27.10;82.33;97502.00;5030757;28;20178;-61
2022/05/29 10:24:58;;;;;;;12.63;4.82;;;;;;;27.23;80.64;97494.63;5041615;28;20177;-60
2022/05/29 10:27:32;;;;;;;13.30;4.43;;;;;;;27.31;83.03;97494.31;5033642;28;20192;-62
2022/05/29 10:30:10;;;;;;;7.88;3.85;;;;;;;27.48;83.41;97484.56;5038573;28;20235;-60
2022/05/29 10:32:40;;;;;;;10.48;4.20;;;;;;;27.48;83.16;97492.56;5047391;28;20188;-60
2022/05/29 10:35:30;;;;;;;11.00;5.03;;;;;;;27.56;83.20;97478.06;5039496;28;20729;-61
2022/05/29 10:37:56;;;;;;;12.48;4.88;;;;;;;27.51;83.54;97472.66;5017763;28;20327;-61
2022/05/29 10:40:26;;;;;;;11.48;4.85;;;;;;;27.48;85.33;97470.47;5017747;28;20186;-62
2022/05/29 10:42:59;;;;;;;7.93;5.13;;;;;;;27.69;85.42;97486.59;5028339;28;20214;-61
2022/05/29 10:45:41;;;;;;;13.15;5.63;;;;;;;27.70;84.45;97466.94;5030997;28;20324;-61
2022/05/29 10:48:40;;;;;;;14.65;5.07;;;;;;;27.99;83.28;97468.59;5033597;28;20180;-61
2022/05/29 10:51:27;;;;;;;13.20;4.80;;;;;;;27.71;84.02;97457.13;5034696;28;20635;-61
2022/05/29 10:54:15;;;;;;;11.18;5.20;;;;;;;27.55;85.19;97452.53;5034278;28;21031;-62
2022/05/29 10:57:14;;;;;;;8.70;4.50;;;;;;;27.56;84.73;97438.19;5039159;28;20803;-60
2022/05/29 10:59:59;;;;;;;16.05;5.40;;;;;;;27.67;81.46;97430.22;5036106;28;20185;-62
2022/05/29 11:05:37;;;;;;;11.95;4.70;;;;;;;28.12;82.79;97438.25;5035493;28;20208;-62
2022/05/29 11:08:11;;;;;;;10.23;4.90;;;;;;;28.31;81.42;97437.00;5028538;28;20181;-60
2022/05/29 11:10:51;;;;;;;15.73;5.43;;;;;;;28.47;82.67;97429.06;5034514;28;20576;-62
2022/05/29 11:13:52;;;;;;;13.30;5.50;;;;;;;28.60;80.83;97430.59;5031385;28;20184;-62
2022/05/29 11:16:26;;;;;;;13.20;4.47;;;;;;;28.32;83.66;97414.66;5026832;28;20206;-62
2022/05/29 11:19:03;;;;;;;16.15;5.13;;;;;;;28.31;84.73;97405.06;5021516;28;20209;-60
2022/05/29 11:22:05;;;;;;;11.07;5.25;;;;;;;28.46;84.72;97394.72;5016653;28;20180;-61
2022/05/29 11:24:47;;;;;;;12.95;5.13;;;;;;;28.65;79.71;97380.91;5022907;28;21077;-61
2022/05/29 11:27:18;;;;;;;9.50;4.70;;;;;;;28.88;77.25;97380.72;5034859;28;20205;-61
2022/05/29 11:30:02;;;;;;;9.32;4.95;;;;;;;29.03;78.44;97377.47;5035225;28;20169;-60
2022/05/29 11:32:54;;;;;;;12.75;4.72;;;;;;;29.18;75.83;97367.81;5037033;28;20562;-61
2022/05/29 11:35:40;;;;;;;9.68;4.47;;;;;;;29.32;76.99;97366.38;5030829;28;20194;-62
2022/05/29 11:38:15;;;;;;;12.00;4.30;;;;;;;29.53;77.20;97368.28;5039849;28;20180;-61
2022/05/29 11:40:48;;;;;;;13.88;4.93;;;;;;;29.70;74.47;97353.00;5037609;28;20731;-62
2022/05/29 11:43:23;;;;;;;12.48;4.93;;;;;;;29.91;73.57;97349.47;5036499;28;20181;-62
2022/05/29 11:51:52;;;;;;;12.20;4.43;;;;;;;30.47;62.46;97321.38;5029615;28;20205;-62
2022/05/29 11:54:41;;;;;;;8.18;4.60;;;;;;;30.31;61.76;97315.13;5040946;28;20208;-61
2022/05/29 11:57:12;;;;;;;11.68;5.15;;;;;;;30.45;62.09;97319.00;5036354;28;20205;-61
2022/05/29 11:59:53;;;;;;;9.30;4.88;;;;;;;30.56;60.76;97312.66;5032675;28;20177;-62
2022/05/29 12:02:46;;;;;;;12.60;5.32;;;;;;;30.67;60.18;97314.34;5035232;28;20263;-62
2022/05/29 12:05:34;;;;;;;10.65;4.65;;;;;;;30.72;63.35;97309.03;5036720;28;20196;-62
2022/05/29 12:08:08;;;;;;;10.60;5.38;;;;;;;30.56;61.07;97293.97;5031039;28;20182;-62
2022/05/29 12:11:06;;;;;;;11.52;4.82;;;;;;;30.27;59.59;97299.91;5026819;28;20228;-62
2022/05/29 12:13:38;;;;;;;14.90;5.60;;;;;;;30.34;58.37;97285.28;5032996;28;20207;-61
2022/05/29 12:16:09;;;;;;;10.30;5.18;;;;;;;30.54;57.54;97264.03;5042939;28;20177;-61
2022/05/29 12:19:03;;;;;;;11.40;4.95;;;;;;;30.67;53.62;97252.91;5029094;28;20174;-61
2022/05/29 12:21:41;;;;;;;8.52;4.72;;;;;;;30.59;55.30;97260.56;5030030;28;20196;-61
2022/05/29 12:24:10;;;;;;;12.73;5.00;;;;;;;30.73;52.70;97265.22;5035404;28;20192;-62